sensor_id;sensor_type;location;lat;lon;timestamp;P1;durP1;ratioP1;P2;durP2;ratioP2
35685;SDS011;21808;42.142;24.720;2024-02-28T00:02:09;22.13;;;6.72;;
35685;SDS011;21808;42.142;24.720;2024-02-28T00:04:35;17.77;;;6.30;;
35685;SDS011;21808;42.142;24.720;2024-02-28T00:07:02;19.77;;;5.68;;
35685;SDS011;21808;42.142;24.720;2024-02-28T00:09:29;21.70;;;6.53;;
35685;SDS011;21808;42.142;24.720;2024-02-28T00:11:55;25.00;;;6.20;;
35685;SDS011;21808;42.142;24.720;2024-02-28T00:14:22;24.38;;;6.90;;
35685;SDS011;21808;42.142;24.720;2024-02-28T00:16:49;22.55;;;6.25;;
35685;SDS011;21808;42.142;24.720;2024-02-28T00:19:18;31.15;;;6.43;;
35685;SDS011;21808;42.142;24.720;2024-02-28T00:21:46;17.05;;;6.35;;
35685;SDS011;21808;42.142;24.720;2024-02-28T00:24:13;28.77;;;6.50;;
35685;SDS011;21808;42.142;24.720;2024-02-28T00:26:40;19.80;;;5.90;;
35685;SDS011;21808;42.142;24.720;2024-02-28T00:29:07;23.63;;;6.80;;
35685;SDS011;21808;42.142;24.720;2024-02-28T00:31:34;23.60;;;6.43;;
35685;SDS011;21808;42.142;24.720;2024-02-28T00:34:01;27.77;;;7.13;;
35685;SDS011;21808;42.142;24.720;2024-02-28T00:36:29;20.52;;;6.00;;
35685;SDS011;21808;42.142;24.720;2024-02-28T00:39:13;23.95;;;6.25;;
35685;SDS011;21808;42.142;24.720;2024-02-28T00:41:40;27.15;;;6.13;;
35685;SDS011;21808;42.142;24.720;2024-02-28T00:44:06;20.02;;;5.57;;
35685;SDS011;21808;42.142;24.720;2024-02-28T00:46:33;24.63;;;6.03;;
35685;SDS011;21808;42.142;24.720;2024-02-28T00:49:00;23.30;;;6.78;;
35685;SDS011;21808;42.142;24.720;2024-02-28T00:51:27;22.08;;;7.45;;
35685;SDS011;21808;42.142;24.720;2024-02-28T00:53:55;24.45;;;6.68;;
35685;SDS011;21808;42.142;24.720;2024-02-28T00:56:23;21.83;;;7.40;;
35685;SDS011;21808;42.142;24.720;2024-02-28T00:58:50;30.27;;;8.70;;
35685;SDS011;21808;42.142;24.720;2024-02-28T01:01:17;25.15;;;8.20;;
35685;SDS011;21808;42.142;24.720;2024-02-28T01:03:44;24.30;;;7.30;;
35685;SDS011;21808;42.142;24.720;2024-02-28T01:06:13;23.17;;;8.02;;
35685;SDS011;21808;42.142;24.720;2024-02-28T01:08:42;22.65;;;8.13;;
35685;SDS011;21808;42.142;24.720;2024-02-28T01:11:11;25.52;;;7.90;;
35685;SDS011;21808;42.142;24.720;2024-02-28T01:13:38;26.95;;;7.72;;
35685;SDS011;21808;42.142;24.720;2024-02-28T01:16:04;24.77;;;7.50;;
35685;SDS011;21808;42.142;24.720;2024-02-28T01:18:31;22.80;;;7.43;;
35685;SDS011;21808;42.142;24.720;2024-02-28T01:20:58;21.30;;;7.47;;
35685;SDS011;21808;42.142;24.720;2024-02-28T01:23:25;21.20;;;6.53;;
35685;SDS011;21808;42.142;24.720;2024-02-28T01:25:52;23.02;;;6.38;;
35685;SDS011;21808;42.142;24.720;2024-02-28T01:28:20;20.95;;;6.57;;
35685;SDS011;21808;42.142;24.720;2024-02-28T01:30:48;20.17;;;5.82;;
35685;SDS011;21808;42.142;24.720;2024-02-28T01:33:15;19.95;;;5.93;;
35685;SDS011;21808;42.142;24.720;2024-02-28T01:35:42;27.15;;;6.82;;
35685;SDS011;21808;42.142;24.720;2024-02-28T01:38:08;20.40;;;6.28;;
35685;SDS011;21808;42.142;24.720;2024-02-28T01:40:35;23.23;;;5.68;;
35685;SDS011;21808;42.142;24.720;2024-02-28T01:43:02;26.33;;;6.85;;
35685;SDS011;21808;42.142;24.720;2024-02-28T01:45:30;33.17;;;6.72;;
35685;SDS011;21808;42.142;24.720;2024-02-28T01:47:57;21.90;;;5.95;;
35685;SDS011;21808;42.142;24.720;2024-02-28T01:50:24;23.85;;;6.65;;
35685;SDS011;21808;42.142;24.720;2024-02-28T01:52:50;20.45;;;6.18;;
35685;SDS011;21808;42.142;24.720;2024-02-28T01:55:17;23.92;;;6.40;;
35685;SDS011;21808;42.142;24.720;2024-02-28T01:57:50;22.35;;;5.95;;
35685;SDS011;21808;42.142;24.720;2024-02-28T02:00:26;22.35;;;5.78;;
35685;SDS011;21808;42.142;24.720;2024-02-28T02:02:55;28.20;;;6.30;;
35685;SDS011;21808;42.142;24.720;2024-02-28T02:05:22;20.35;;;5.88;;
35685;SDS011;21808;42.142;24.720;2024-02-28T02:07:49;23.80;;;5.75;;
35685;SDS011;21808;42.142;24.720;2024-02-28T02:10:16;20.92;;;6.60;;
35685;SDS011;21808;42.142;24.720;2024-02-28T02:12:43;21.05;;;5.88;;
35685;SDS011;21808;42.142;24.720;2024-02-28T02:15:09;23.85;;;5.93;;
35685;SDS011;21808;42.142;24.720;2024-02-28T02:17:36;20.92;;;6.10;;
35685;SDS011;21808;42.142;24.720;2024-02-28T02:20:06;29.52;;;6.70;;
35685;SDS011;21808;42.142;24.720;2024-02-28T02:22:37;20.58;;;6.22;;
35685;SDS011;21808;42.142;24.720;2024-02-28T02:25:07;21.50;;;7.00;;
35685;SDS011;21808;42.142;24.720;2024-02-28T02:27:37;20.10;;;5.63;;
35685;SDS011;21808;42.142;24.720;2024-02-28T02:30:05;21.67;;;6.63;;
35685;SDS011;21808;42.142;24.720;2024-02-28T02:32:31;19.02;;;6.05;;
35685;SDS011;21808;42.142;24.720;2024-02-28T02:34:58;16.35;;;5.93;;
35685;SDS011;21808;42.142;24.720;2024-02-28T02:37:25;22.65;;;5.60;;
35685;SDS011;21808;42.142;24.720;2024-02-28T02:39:53;25.58;;;5.95;;
35685;SDS011;21808;42.142;24.720;2024-02-28T02:42:20;18.55;;;5.95;;
35685;SDS011;21808;42.142;24.720;2024-02-28T02:44:47;18.63;;;5.97;;
35685;SDS011;21808;42.142;24.720;2024-02-28T02:47:13;22.40;;;6.35;;
35685;SDS011;21808;42.142;24.720;2024-02-28T02:49:40;20.77;;;6.18;;
35685;SDS011;21808;42.142;24.720;2024-02-28T02:52:07;19.95;;;5.95;;
35685;SDS011;21808;42.142;24.720;2024-02-28T02:54:33;19.75;;;4.95;;
35685;SDS011;21808;42.142;24.720;2024-02-28T02:57:02;17.55;;;5.47;;
35685;SDS011;21808;42.142;24.720;2024-02-28T02:59:29;18.27;;;5.68;;
35685;SDS011;21808;42.142;24.720;2024-02-28T03:01:56;23.33;;;6.00;;
35685;SDS011;21808;42.142;24.720;2024-02-28T03:04:22;23.25;;;5.72;;
35685;SDS011;21808;42.142;24.720;2024-02-28T03:06:49;17.98;;;5.85;;
35685;SDS011;21808;42.142;24.720;2024-02-28T03:09:19;17.58;;;4.78;;
35685;SDS011;21808;42.142;24.720;2024-02-28T03:11:45;21.85;;;5.78;;
35685;SDS011;21808;42.142;24.720;2024-02-28T03:14:13;19.50;;;5.38;;
35685;SDS011;21808;42.142;24.720;2024-02-28T03:16:41;18.70;;;5.25;;
35685;SDS011;21808;42.142;24.720;2024-02-28T03:19:07;22.27;;;5.32;;
35685;SDS011;21808;42.142;24.720;2024-02-28T03:21:34;22.75;;;6.18;;
35685;SDS011;21808;42.142;24.720;2024-02-28T03:24:01;18.13;;;5.63;;
35685;SDS011;21808;42.142;24.720;2024-02-28T03:26:27;19.50;;;5.65;;
35685;SDS011;21808;42.142;24.720;2024-02-28T03:28:54;16.83;;;5.72;;
35685;SDS011;21808;42.142;24.720;2024-02-28T03:31:22;21.42;;;6.18;;
35685;SDS011;21808;42.142;24.720;2024-02-28T03:33:49;25.20;;;6.13;;
35685;SDS011;21808;42.142;24.720;2024-02-28T03:36:16;22.95;;;5.60;;
35685;SDS011;21808;42.142;24.720;2024-02-28T03:38:42;21.60;;;6.78;;
35685;SDS011;21808;42.142;24.720;2024-02-28T03:41:09;22.15;;;7.07;;
35685;SDS011;21808;42.142;24.720;2024-02-28T03:43:36;19.98;;;7.07;;
35685;SDS011;21808;42.142;24.720;2024-02-28T03:46:02;18.80;;;5.50;;
35685;SDS011;21808;42.142;24.720;2024-02-28T03:48:31;23.63;;;7.60;;
35685;SDS011;21808;42.142;24.720;2024-02-28T03:50:57;30.58;;;9.55;;
35685;SDS011;21808;42.142;24.720;2024-02-28T03:53:24;27.17;;;7.43;;
35685;SDS011;21808;42.142;24.720;2024-02-28T03:55:51;22.42;;;6.72;;
35685;SDS011;21808;42.142;24.720;2024-02-28T03:58:17;25.80;;;7.47;;
35685;SDS011;21808;42.142;24.720;2024-02-28T04:00:47;27.63;;;8.98;;
35685;SDS011;21808;42.142;24.720;2024-02-28T04:03:14;19.50;;;7.00;;
35685;SDS011;21808;42.142;24.720;2024-02-28T04:05:42;24.92;;;7.20;;
35685;SDS011;21808;42.142;24.720;2024-02-28T04:08:09;28.33;;;7.97;;
35685;SDS011;21808;42.142;24.720;2024-02-28T04:10:36;26.30;;;7.55;;
35685;SDS011;21808;42.142;24.720;2024-02-28T04:13:08;19.50;;;6.68;;
35685;SDS011;21808;42.142;24.720;2024-02-28T04:15:35;25.15;;;7.28;;
35685;SDS011;21808;42.142;24.720;2024-02-28T04:18:04;27.85;;;7.45;;
35685;SDS011;21808;42.142;24.720;2024-02-28T04:20:31;22.95;;;7.20;;
35685;SDS011;21808;42.142;24.720;2024-02-28T04:22:59;28.98;;;7.45;;
35685;SDS011;21808;42.142;24.720;2024-02-28T04:25:27;24.13;;;7.75;;
35685;SDS011;21808;42.142;24.720;2024-02-28T04:27:54;29.05;;;9.30;;
35685;SDS011;21808;42.142;24.720;2024-02-28T04:30:21;38.15;;;12.05;;
35685;SDS011;21808;42.142;24.720;2024-02-28T04:32:48;28.90;;;11.70;;
35685;SDS011;21808;42.142;24.720;2024-02-28T04:35:15;37.47;;;13.15;;
35685;SDS011;21808;42.142;24.720;2024-02-28T04:37:45;42.70;;;15.35;;
35685;SDS011;21808;42.142;24.720;2024-02-28T04:40:14;41.03;;;18.98;;
35685;SDS011;21808;42.142;24.720;2024-02-28T04:42:42;43.72;;;20.30;;
35685;SDS011;21808;42.142;24.720;2024-02-28T04:45:09;49.90;;;19.67;;
35685;SDS011;21808;42.142;24.720;2024-02-28T04:47:36;49.40;;;20.98;;
35685;SDS011;21808;42.142;24.720;2024-02-28T04:50:10;48.40;;;21.48;;
35685;SDS011;21808;42.142;24.720;2024-02-28T04:52:37;47.33;;;18.27;;
35685;SDS011;21808;42.142;24.720;2024-02-28T04:55:04;48.97;;;20.30;;
35685;SDS011;21808;42.142;24.720;2024-02-28T04:57:33;45.58;;;19.83;;
35685;SDS011;21808;42.142;24.720;2024-02-28T04:59:59;58.50;;;21.50;;
35685;SDS011;21808;42.142;24.720;2024-02-28T05:02:26;52.50;;;21.48;;
35685;SDS011;21808;42.142;24.720;2024-02-28T05:04:53;57.30;;;22.65;;
35685;SDS011;21808;42.142;24.720;2024-02-28T05:07:20;49.92;;;20.48;;
35685;SDS011;21808;42.142;24.720;2024-02-28T05:09:46;49.03;;;18.98;;
35685;SDS011;21808;42.142;24.720;2024-02-28T05:12:13;58.10;;;21.48;;
35685;SDS011;21808;42.142;24.720;2024-02-28T05:14:41;52.03;;;21.17;;
35685;SDS011;21808;42.142;24.720;2024-02-28T05:17:08;62.03;;;24.08;;
35685;SDS011;21808;42.142;24.720;2024-02-28T05:19:35;53.92;;;22.73;;
35685;SDS011;21808;42.142;24.720;2024-02-28T05:22:01;59.08;;;21.65;;
35685;SDS011;21808;42.142;24.720;2024-02-28T05:24:29;54.47;;;22.58;;
35685;SDS011;21808;42.142;24.720;2024-02-28T05:26:56;56.58;;;21.70;;
35685;SDS011;21808;42.142;24.720;2024-02-28T05:29:22;47.97;;;21.27;;
35685;SDS011;21808;42.142;24.720;2024-02-28T05:31:50;51.35;;;20.33;;
35685;SDS011;21808;42.142;24.720;2024-02-28T05:34:17;46.40;;;20.33;;
35685;SDS011;21808;42.142;24.720;2024-02-28T05:36:44;50.67;;;20.75;;
35685;SDS011;21808;42.142;24.720;2024-02-28T05:39:11;47.03;;;19.30;;
35685;SDS011;21808;42.142;24.720;2024-02-28T05:41:37;50.97;;;21.42;;
35685;SDS011;21808;42.142;24.720;2024-02-28T05:44:04;47.97;;;19.48;;
35685;SDS011;21808;42.142;24.720;2024-02-28T05:46:31;52.58;;;21.13;;
35685;SDS011;21808;42.142;24.720;2024-02-28T05:49:02;49.85;;;19.98;;
35685;SDS011;21808;42.142;24.720;2024-02-28T05:51:29;55.15;;;21.45;;
35685;SDS011;21808;42.142;24.720;2024-02-28T05:53:55;46.97;;;17.88;;
35685;SDS011;21808;42.142;24.720;2024-02-28T05:56:22;50.20;;;20.25;;
35685;SDS011;21808;42.142;24.720;2024-02-28T05:58:49;46.60;;;17.33;;
35685;SDS011;21808;42.142;24.720;2024-02-28T06:01:16;48.25;;;20.13;;
35685;SDS011;21808;42.142;24.720;2024-02-28T06:03:46;47.08;;;19.30;;
35685;SDS011;21808;42.142;24.720;2024-02-28T06:06:15;51.42;;;19.95;;
35685;SDS011;21808;42.142;24.720;2024-02-28T06:08:42;54.90;;;20.30;;
35685;SDS011;21808;42.142;24.720;2024-02-28T06:11:09;45.47;;;22.33;;
35685;SDS011;21808;42.142;24.720;2024-02-28T06:13:36;55.28;;;21.38;;
35685;SDS011;21808;42.142;24.720;2024-02-28T06:16:05;52.85;;;21.90;;
35685;SDS011;21808;42.142;24.720;2024-02-28T06:18:31;51.42;;;21.05;;
35685;SDS011;21808;42.142;24.720;2024-02-28T06:21:00;42.08;;;19.42;;
35685;SDS011;21808;42.142;24.720;2024-02-28T06:23:29;42.00;;;16.83;;
35685;SDS011;21808;42.142;24.720;2024-02-28T06:25:56;45.15;;;18.73;;
35685;SDS011;21808;42.142;24.720;2024-02-28T06:28:23;45.83;;;17.95;;
35685;SDS011;21808;42.142;24.720;2024-02-28T06:30:50;42.10;;;18.02;;
35685;SDS011;21808;42.142;24.720;2024-02-28T06:33:17;47.60;;;18.83;;
35685;SDS011;21808;42.142;24.720;2024-02-28T06:35:44;46.22;;;17.13;;
35685;SDS011;21808;42.142;24.720;2024-02-28T06:38:10;46.17;;;17.30;;
35685;SDS011;21808;42.142;24.720;2024-02-28T06:40:39;44.17;;;17.80;;
35685;SDS011;21808;42.142;24.720;2024-02-28T06:43:05;39.20;;;17.90;;
35685;SDS011;21808;42.142;24.720;2024-02-28T06:45:32;40.63;;;17.48;;
35685;SDS011;21808;42.142;24.720;2024-02-28T06:47:59;39.17;;;16.38;;
35685;SDS011;21808;42.142;24.720;2024-02-28T06:50:26;35.25;;;15.90;;
35685;SDS011;21808;42.142;24.720;2024-02-28T06:52:52;45.58;;;18.65;;
35685;SDS011;21808;42.142;24.720;2024-02-28T06:55:20;45.88;;;18.10;;
35685;SDS011;21808;42.142;24.720;2024-02-28T06:57:49;45.90;;;17.40;;
35685;SDS011;21808;42.142;24.720;2024-02-28T07:00:16;38.92;;;17.25;;
35685;SDS011;21808;42.142;24.720;2024-02-28T07:02:45;40.38;;;17.38;;
35685;SDS011;21808;42.142;24.720;2024-02-28T07:05:12;35.47;;;16.95;;
35685;SDS011;21808;42.142;24.720;2024-02-28T07:07:39;48.67;;;16.85;;
35685;SDS011;21808;42.142;24.720;2024-02-28T07:10:06;40.42;;;16.08;;
35685;SDS011;21808;42.142;24.720;2024-02-28T07:12:33;44.97;;;16.98;;
35685;SDS011;21808;42.142;24.720;2024-02-28T07:15:01;46.78;;;17.30;;
35685;SDS011;21808;42.142;24.720;2024-02-28T07:17:29;43.20;;;16.83;;
35685;SDS011;21808;42.142;24.720;2024-02-28T07:19:56;39.33;;;15.88;;
35685;SDS011;21808;42.142;24.720;2024-02-28T07:22:23;37.38;;;16.35;;
35685;SDS011;21808;42.142;24.720;2024-02-28T07:24:49;41.20;;;17.65;;
35685;SDS011;21808;42.142;24.720;2024-02-28T07:27:16;44.15;;;18.67;;
35685;SDS011;21808;42.142;24.720;2024-02-28T07:29:43;39.90;;;16.98;;
35685;SDS011;21808;42.142;24.720;2024-02-28T07:32:12;46.60;;;17.38;;
35685;SDS011;21808;42.142;24.720;2024-02-28T07:34:38;48.00;;;17.63;;
35685;SDS011;21808;42.142;24.720;2024-02-28T07:37:05;45.70;;;17.45;;
35685;SDS011;21808;42.142;24.720;2024-02-28T07:39:32;43.22;;;15.95;;
35685;SDS011;21808;42.142;24.720;2024-02-28T07:41:59;42.53;;;16.83;;
35685;SDS011;21808;42.142;24.720;2024-02-28T07:44:26;38.85;;;16.13;;
35685;SDS011;21808;42.142;24.720;2024-02-28T07:46:52;38.92;;;15.63;;
35685;SDS011;21808;42.142;24.720;2024-02-28T07:49:21;36.85;;;16.52;;
35685;SDS011;21808;42.142;24.720;2024-02-28T07:51:49;40.15;;;16.92;;
35685;SDS011;21808;42.142;24.720;2024-02-28T07:54:16;40.72;;;17.17;;
35685;SDS011;21808;42.142;24.720;2024-02-28T07:56:46;40.15;;;17.35;;
35685;SDS011;21808;42.142;24.720;2024-02-28T07:59:12;41.88;;;17.55;;
35685;SDS011;21808;42.142;24.720;2024-02-28T08:01:39;37.97;;;16.45;;
35685;SDS011;21808;42.142;24.720;2024-02-28T08:04:06;48.80;;;19.73;;
35685;SDS011;21808;42.142;24.720;2024-02-28T08:06:35;42.80;;;18.70;;
35685;SDS011;21808;42.142;24.720;2024-02-28T08:09:01;43.58;;;17.58;;
35685;SDS011;21808;42.142;24.720;2024-02-28T08:11:33;43.55;;;18.00;;
35685;SDS011;21808;42.142;24.720;2024-02-28T08:14:12;48.05;;;19.63;;
35685;SDS011;21808;42.142;24.720;2024-02-28T08:16:48;42.90;;;17.70;;
35685;SDS011;21808;42.142;24.720;2024-02-28T08:19:14;49.25;;;19.45;;
35685;SDS011;21808;42.142;24.720;2024-02-28T08:21:48;47.25;;;18.70;;
35685;SDS011;21808;42.142;24.720;2024-02-28T08:24:16;43.38;;;18.95;;
35685;SDS011;21808;42.142;24.720;2024-02-28T08:26:43;51.80;;;19.65;;
35685;SDS011;21808;42.142;24.720;2024-02-28T08:29:13;44.38;;;19.75;;
35685;SDS011;21808;42.142;24.720;2024-02-28T08:31:40;52.10;;;18.23;;
35685;SDS011;21808;42.142;24.720;2024-02-28T08:34:08;39.45;;;17.13;;
35685;SDS011;21808;42.142;24.720;2024-02-28T08:36:35;48.88;;;17.70;;
35685;SDS011;21808;42.142;24.720;2024-02-28T08:39:03;47.53;;;18.35;;
35685;SDS011;21808;42.142;24.720;2024-02-28T08:41:36;50.13;;;19.42;;
35685;SDS011;21808;42.142;24.720;2024-02-28T08:44:04;46.88;;;17.00;;
35685;SDS011;21808;42.142;24.720;2024-02-28T08:46:31;40.67;;;17.45;;
35685;SDS011;21808;42.142;24.720;2024-02-28T08:49:00;38.25;;;15.55;;
35685;SDS011;21808;42.142;24.720;2024-02-28T08:51:34;44.05;;;17.17;;
35685;SDS011;21808;42.142;24.720;2024-02-28T08:54:02;42.00;;;16.17;;
35685;SDS011;21808;42.142;24.720;2024-02-28T08:56:30;42.85;;;15.45;;
35685;SDS011;21808;42.142;24.720;2024-02-28T08:58:57;33.00;;;14.50;;
35685;SDS011;21808;42.142;24.720;2024-02-28T09:01:23;48.17;;;14.57;;
35685;SDS011;21808;42.142;24.720;2024-02-28T09:03:50;35.63;;;13.27;;
35685;SDS011;21808;42.142;24.720;2024-02-28T09:06:20;38.28;;;13.43;;
35685;SDS011;21808;42.142;24.720;2024-02-28T09:08:47;31.80;;;12.43;;
35685;SDS011;21808;42.142;24.720;2024-02-28T09:11:15;28.33;;;12.45;;
35685;SDS011;21808;42.142;24.720;2024-02-28T09:13:42;35.17;;;13.50;;
35685;SDS011;21808;42.142;24.720;2024-02-28T09:16:08;35.45;;;13.70;;
35685;SDS011;21808;42.142;24.720;2024-02-28T09:18:36;46.03;;;14.57;;
35685;SDS011;21808;42.142;24.720;2024-02-28T09:21:03;44.65;;;13.93;;
35685;SDS011;21808;42.142;24.720;2024-02-28T09:23:30;37.28;;;13.00;;
35685;SDS011;21808;42.142;24.720;2024-02-28T09:25:57;42.25;;;13.45;;
35685;SDS011;21808;42.142;24.720;2024-02-28T09:28:25;39.65;;;14.07;;
35685;SDS011;21808;42.142;24.720;2024-02-28T09:30:52;30.98;;;12.32;;
35685;SDS011;21808;42.142;24.720;2024-02-28T09:33:22;33.83;;;12.65;;
35685;SDS011;21808;42.142;24.720;2024-02-28T09:35:49;35.97;;;12.95;;
35685;SDS011;21808;42.142;24.720;2024-02-28T09:38:16;40.22;;;13.95;;
35685;SDS011;21808;42.142;24.720;2024-02-28T09:40:45;34.00;;;12.38;;
35685;SDS011;21808;42.142;24.720;2024-02-28T09:43:15;36.38;;;13.18;;
35685;SDS011;21808;42.142;24.720;2024-02-28T09:45:44;28.17;;;11.40;;
35685;SDS011;21808;42.142;24.720;2024-02-28T09:48:14;40.08;;;13.07;;
35685;SDS011;21808;42.142;24.720;2024-02-28T09:50:41;37.97;;;13.73;;
35685;SDS011;21808;42.142;24.720;2024-02-28T09:53:09;35.90;;;13.70;;
35685;SDS011;21808;42.142;24.720;2024-02-28T09:55:36;39.30;;;15.05;;
35685;SDS011;21808;42.142;24.720;2024-02-28T09:58:03;39.15;;;15.50;;
35685;SDS011;21808;42.142;24.720;2024-02-28T10:00:31;41.45;;;13.93;;
35685;SDS011;21808;42.142;24.720;2024-02-28T10:03:04;33.60;;;11.68;;
35685;SDS011;21808;42.142;24.720;2024-02-28T10:05:32;34.42;;;13.63;;
35685;SDS011;21808;42.142;24.720;2024-02-28T10:07:59;39.05;;;14.88;;
35685;SDS011;21808;42.142;24.720;2024-02-28T10:10:26;33.25;;;12.40;;
35685;SDS011;21808;42.142;24.720;2024-02-28T10:12:55;34.90;;;12.98;;
35685;SDS011;21808;42.142;24.720;2024-02-28T10:15:22;32.92;;;14.10;;
35685;SDS011;21808;42.142;24.720;2024-02-28T10:17:49;35.75;;;14.05;;
35685;SDS011;21808;42.142;24.720;2024-02-28T10:20:21;31.33;;;13.45;;
35685;SDS011;21808;42.142;24.720;2024-02-28T10:22:47;31.83;;;13.20;;
35685;SDS011;21808;42.142;24.720;2024-02-28T10:25:14;34.83;;;13.32;;
35685;SDS011;21808;42.142;24.720;2024-02-28T10:27:41;33.50;;;12.43;;
35685;SDS011;21808;42.142;24.720;2024-02-28T10:30:08;29.15;;;12.07;;
35685;SDS011;21808;42.142;24.720;2024-02-28T10:32:36;31.90;;;13.35;;
35685;SDS011;21808;42.142;24.720;2024-02-28T10:35:05;37.45;;;14.98;;
35685;SDS011;21808;42.142;24.720;2024-02-28T10:37:39;37.35;;;13.52;;
35685;SDS011;21808;42.142;24.720;2024-02-28T10:40:06;27.52;;;12.35;;
35685;SDS011;21808;42.142;24.720;2024-02-28T10:42:35;32.15;;;13.00;;
35685;SDS011;21808;42.142;24.720;2024-02-28T10:45:03;31.13;;;12.80;;
35685;SDS011;21808;42.142;24.720;2024-02-28T10:47:46;36.15;;;12.73;;
35685;SDS011;21808;42.142;24.720;2024-02-28T10:50:16;28.33;;;13.07;;
35685;SDS011;21808;42.142;24.720;2024-02-28T10:52:45;33.83;;;12.52;;
35685;SDS011;21808;42.142;24.720;2024-02-28T10:55:13;32.33;;;12.85;;
35685;SDS011;21808;42.142;24.720;2024-02-28T10:57:40;32.05;;;11.98;;
35685;SDS011;21808;42.142;24.720;2024-02-28T11:00:07;31.50;;;13.57;;
35685;SDS011;21808;42.142;24.720;2024-02-28T11:02:37;32.17;;;12.05;;
35685;SDS011;21808;42.142;24.720;2024-02-28T11:05:04;35.60;;;12.70;;
35685;SDS011;21808;42.142;24.720;2024-02-28T11:07:31;36.70;;;14.35;;
35685;SDS011;21808;42.142;24.720;2024-02-28T11:10:03;33.90;;;12.05;;
35685;SDS011;21808;42.142;24.720;2024-02-28T11:12:31;28.63;;;11.13;;
35685;SDS011;21808;42.142;24.720;2024-02-28T11:14:58;32.88;;;12.30;;
35685;SDS011;21808;42.142;24.720;2024-02-28T11:17:28;34.45;;;12.77;;
35685;SDS011;21808;42.142;24.720;2024-02-28T11:19:57;32.35;;;12.85;;
35685;SDS011;21808;42.142;24.720;2024-02-28T11:22:27;29.08;;;11.60;;
35685;SDS011;21808;42.142;24.720;2024-02-28T11:24:55;31.33;;;11.13;;
35685;SDS011;21808;42.142;24.720;2024-02-28T11:27:33;30.77;;;12.05;;
35685;SDS011;21808;42.142;24.720;2024-02-28T11:30:00;27.85;;;11.95;;
35685;SDS011;21808;42.142;24.720;2024-02-28T11:32:29;28.02;;;11.40;;
35685;SDS011;21808;42.142;24.720;2024-02-28T11:35:00;31.75;;;11.43;;
35685;SDS011;21808;42.142;24.720;2024-02-28T11:37:26;27.60;;;10.43;;
35685;SDS011;21808;42.142;24.720;2024-02-28T11:39:57;28.15;;;11.88;;
35685;SDS011;21808;42.142;24.720;2024-02-28T11:42:24;28.02;;;11.70;;
35685;SDS011;21808;42.142;24.720;2024-02-28T11:44:55;25.60;;;11.52;;
35685;SDS011;21808;42.142;24.720;2024-02-28T11:47:27;32.08;;;12.02;;
35685;SDS011;21808;42.142;24.720;2024-02-28T11:49:57;29.73;;;13.32;;
35685;SDS011;21808;42.142;24.720;2024-02-28T11:52:25;28.10;;;10.40;;
35685;SDS011;21808;42.142;24.720;2024-02-28T11:54:51;31.35;;;10.93;;
35685;SDS011;21808;42.142;24.720;2024-02-28T11:57:19;28.30;;;11.02;;
35685;SDS011;21808;42.142;24.720;2024-02-28T12:00:07;26.13;;;10.40;;
35685;SDS011;21808;42.142;24.720;2024-02-28T12:02:35;24.77;;;9.65;;
35685;SDS011;21808;42.142;24.720;2024-02-28T12:05:03;28.73;;;11.30;;
35685;SDS011;21808;42.142;24.720;2024-02-28T12:07:36;23.15;;;9.27;;
35685;SDS011;21808;42.142;24.720;2024-02-28T12:10:03;23.08;;;8.75;;
35685;SDS011;21808;42.142;24.720;2024-02-28T12:12:30;24.08;;;10.23;;
35685;SDS011;21808;42.142;24.720;2024-02-28T12:15:03;27.40;;;9.40;;
35685;SDS011;21808;42.142;24.720;2024-02-28T12:17:31;21.30;;;8.98;;
35685;SDS011;21808;42.142;24.720;2024-02-28T12:19:58;23.15;;;9.30;;
35685;SDS011;21808;42.142;24.720;2024-02-28T12:22:25;23.20;;;8.95;;
35685;SDS011;21808;42.142;24.720;2024-02-28T12:24:52;25.15;;;8.95;;
35685;SDS011;21808;42.142;24.720;2024-02-28T12:27:19;25.05;;;7.80;;
35685;SDS011;21808;42.142;24.720;2024-02-28T12:29:46;20.20;;;7.53;;
35685;SDS011;21808;42.142;24.720;2024-02-28T12:32:14;22.23;;;9.75;;
35685;SDS011;21808;42.142;24.720;2024-02-28T12:34:43;23.58;;;8.63;;
35685;SDS011;21808;42.142;24.720;2024-02-28T12:37:10;25.67;;;8.30;;
35685;SDS011;21808;42.142;24.720;2024-02-28T12:39:46;21.70;;;8.10;;
35685;SDS011;21808;42.142;24.720;2024-02-28T12:42:14;21.25;;;8.63;;
35685;SDS011;21808;42.142;24.720;2024-02-28T12:44:40;22.23;;;8.50;;
35685;SDS011;21808;42.142;24.720;2024-02-28T12:47:12;23.70;;;8.38;;
35685;SDS011;21808;42.142;24.720;2024-02-28T12:49:42;23.17;;;9.95;;
35685;SDS011;21808;42.142;24.720;2024-02-28T12:52:09;25.52;;;9.88;;
35685;SDS011;21808;42.142;24.720;2024-02-28T12:54:36;25.75;;;9.63;;
35685;SDS011;21808;42.142;24.720;2024-02-28T12:57:03;25.35;;;9.98;;
35685;SDS011;21808;42.142;24.720;2024-02-28T12:59:31;22.77;;;9.15;;
35685;SDS011;21808;42.142;24.720;2024-02-28T13:01:59;25.40;;;9.30;;
35685;SDS011;21808;42.142;24.720;2024-02-28T13:04:26;22.05;;;8.98;;
35685;SDS011;21808;42.142;24.720;2024-02-28T13:06:56;23.45;;;9.15;;
35685;SDS011;21808;42.142;24.720;2024-02-28T13:09:26;24.60;;;9.40;;
35685;SDS011;21808;42.142;24.720;2024-02-28T13:11:52;26.08;;;10.23;;
35685;SDS011;21808;42.142;24.720;2024-02-28T13:14:19;31.52;;;10.70;;
35685;SDS011;21808;42.142;24.720;2024-02-28T13:16:46;22.73;;;8.38;;
35685;SDS011;21808;42.142;24.720;2024-02-28T13:19:15;25.02;;;10.57;;
35685;SDS011;21808;42.142;24.720;2024-02-28T13:21:42;22.88;;;9.15;;
35685;SDS011;21808;42.142;24.720;2024-02-28T13:24:10;22.70;;;8.32;;
35685;SDS011;21808;42.142;24.720;2024-02-28T13:26:37;25.77;;;10.02;;
35685;SDS011;21808;42.142;24.720;2024-02-28T13:29:04;20.98;;;9.07;;
35685;SDS011;21808;42.142;24.720;2024-02-28T13:31:30;21.55;;;8.93;;
35685;SDS011;21808;42.142;24.720;2024-02-28T13:33:57;22.55;;;10.10;;
35685;SDS011;21808;42.142;24.720;2024-02-28T13:36:25;23.77;;;9.05;;
35685;SDS011;21808;42.142;24.720;2024-02-28T13:38:54;22.02;;;9.43;;
35685;SDS011;21808;42.142;24.720;2024-02-28T13:41:22;24.00;;;8.52;;
35685;SDS011;21808;42.142;24.720;2024-02-28T13:43:52;26.02;;;9.45;;
35685;SDS011;21808;42.142;24.720;2024-02-28T13:46:19;22.35;;;8.18;;
35685;SDS011;21808;42.142;24.720;2024-02-28T13:48:46;23.73;;;9.40;;
35685;SDS011;21808;42.142;24.720;2024-02-28T13:51:14;25.33;;;9.95;;
35685;SDS011;21808;42.142;24.720;2024-02-28T13:53:42;21.30;;;9.73;;
35685;SDS011;21808;42.142;24.720;2024-02-28T13:56:14;27.20;;;10.00;;
35685;SDS011;21808;42.142;24.720;2024-02-28T13:58:43;22.55;;;8.60;;
35685;SDS011;21808;42.142;24.720;2024-02-28T14:01:19;27.38;;;9.73;;
35685;SDS011;21808;42.142;24.720;2024-02-28T14:03:46;19.98;;;8.70;;
35685;SDS011;21808;42.142;24.720;2024-02-28T14:06:13;26.25;;;10.10;;
35685;SDS011;21808;42.142;24.720;2024-02-28T14:08:40;22.83;;;9.70;;
35685;SDS011;21808;42.142;24.720;2024-02-28T14:11:09;31.77;;;12.45;;
35685;SDS011;21808;42.142;24.720;2024-02-28T14:13:36;26.52;;;10.00;;
35685;SDS011;21808;42.142;24.720;2024-02-28T14:16:08;19.90;;;9.80;;
35685;SDS011;21808;42.142;24.720;2024-02-28T14:18:44;24.75;;;10.18;;